EKSN/CNL METAR and TAF weather

Enter ICAO airport designator
Station Type Date Time Source
EKSN METAR 2019/04/25 11:50 UTC NOAA

EKSN 251150Z 13013KT CAVOK 16/10 Q1010


Station Type Date Time Source
EKSN Decoded METAR 2019/04/25 11:50 UTC NOAA

Sindal Flyveplads, Denmark (EKSN) 57-30N 010-13E 28M
Apr 25, 2019 - 07:50 AM EDT / 2019.04.25 1150 UTC
Wind: from the SE (130 degrees) at 15 MPH (13 KT):0
Visibility: greater than 7 mile(s):0
Temperature: 60 F (16 C)
Dew Point: 50 F (10 C)
Relative Humidity: 67%
Pressure (altimeter): 29.83 in. Hg (1010 hPa)
ob: EKSN 251150Z 13013KT CAVOK 16/10 Q1010
cycle: 12

Station Type Date Time Source
EKSN TAF UTC NOAA

Error!

Example: see airport list